Time;durP1;ratioP1;P1;durP2;ratioP2;P2;SDS_P1;SDS_P2;PMS_P1;PMS_P2;Temp;Humidity;BMP_temperature;BMP_pressure;BME280_temperature;BME280_humidity;BME280_pressure;Samples;Min_cycle;Max_cycle;Signal;HPM_P1;HPM_P2
2023/01/11 00:02:05;;;;;;;10.10;8.82;;;10.70;99.90;;;;;;5053704;28;20126;-55
2023/01/11 00:04:30;;;;;;;11.10;8.65;;;8.80;99.90;;;;;;5056417;28;20493;-55
2023/01/11 00:06:56;;;;;;;11.77;8.90;;;10.50;99.90;;;;;;5055086;28;20483;-55
2023/01/11 00:09:22;;;;;;;10.25;8.63;;;8.80;99.90;;;;;;5055156;28;20127;-55
2023/01/11 00:11:48;;;;;;;11.32;8.65;;;8.80;99.90;;;;;;5055948;28;20123;-55
2023/01/11 00:14:15;;;;;;;10.30;8.48;;;8.70;99.90;;;;;;5056115;28;20501;-55
2023/01/11 00:16:41;;;;;;;11.93;7.43;;;9.00;99.90;;;;;;5055963;28;20070;-55
2023/01/11 00:19:06;;;;;;;11.05;8.43;;;8.80;99.90;;;;;;5055327;28;20036;-55
2023/01/11 00:21:32;;;;;;;11.52;8.88;;;8.90;99.90;;;;;;5055306;28;20044;-56
2023/01/11 00:23:58;;;;;;;10.13;7.97;;;8.80;99.90;;;;;;5056896;28;20043;-54
2023/01/11 00:26:24;;;;;;;10.10;8.73;;;8.90;99.90;;;;;;5054650;28;20049;-55
2023/01/11 00:28:51;;;;;;;11.40;8.00;;;9.10;99.90;;;;;;5054130;28;20139;-54
2023/01/11 00:31:17;;;;;;;10.23;8.63;;;8.80;99.90;;;;;;5053192;28;20111;-56
2023/01/11 00:33:43;;;;;;;7.47;6.13;;;9.70;99.90;;;;;;5054295;28;20440;-55
2023/01/11 00:36:08;;;;;;;10.82;8.55;;;8.90;99.90;;;;;;5053407;28;20038;-55
2023/01/11 00:38:45;;;;;;;9.07;7.40;;;9.10;99.90;;;;;;5053232;28;20465;-55
2023/01/11 00:49:26;;;;;;;9.48;6.90;;;9.20;99.90;;;;;;5052216;28;20044;-55
2023/01/11 00:51:52;;;;;;;10.88;7.78;;;9.30;99.90;;;;;;5053907;28;20043;-54
2023/01/11 00:54:18;;;;;;;9.75;7.00;;;9.30;99.90;;;;;;5054161;28;20044;-55
2023/01/11 00:56:45;;;;;;;9.93;7.63;;;9.20;99.90;;;;;;5053472;28;20040;-55
2023/01/11 00:59:11;;;;;;;9.75;7.38;;;9.20;99.90;;;;;;5053746;28;20606;-54
2023/01/11 01:01:37;;;;;;;8.88;7.65;;;9.20;99.90;;;;;;5052606;28;20044;-56
2023/01/11 01:04:03;;;;;;;8.75;7.00;;;9.30;99.90;;;;;;5052910;28;20131;-55
2023/01/11 01:06:29;;;;;;;9.40;6.22;;;9.30;99.90;;;;;;5052809;28;20072;-55
2023/01/11 01:08:55;;;;;;;9.07;7.10;;;9.30;99.90;;;;;;5053843;28;20402;-55
2023/01/11 01:11:21;;;;;;;7.85;5.93;;;9.80;99.90;;;;;;5052103;28;20064;-55
2023/01/11 01:16:31;;;;;;;6.82;5.53;;;9.20;99.90;;;;;;5052932;28;20040;-55
2023/01/11 01:18:58;;;;;;;6.35;5.18;;;9.40;99.90;;;;;;5052812;28;20310;-55
2023/01/11 01:21:24;;;;;;;6.38;4.70;;;9.40;99.90;;;;;;5055168;28;20181;-55
2023/01/11 01:23:51;;;;;;;8.65;5.13;;;9.60;99.90;;;;;;5055504;28;20036;-55
2023/01/11 01:26:17;;;;;;;6.00;5.10;;;9.60;99.90;;;;;;5054401;28;20113;-55
2023/01/11 01:28:43;;;;;;;6.90;5.10;;;9.40;99.90;;;;;;5054241;28;20045;-55
2023/01/11 01:31:08;;;;;;;8.68;5.20;;;9.60;99.90;;;;;;5051555;28;20606;-54
2023/01/11 01:33:35;;;;;;;5.85;4.70;;;9.50;99.90;;;;;;5053453;28;20156;-55
2023/01/11 01:36:01;;;;;;;6.47;5.03;;;9.60;99.90;;;;;;5054111;28;20048;-56
2023/01/11 01:38:27;;;;;;;6.78;4.85;;;7.40;99.90;;;;;;5052830;28;20140;-55
2023/01/11 01:40:55;;;;;;;10.50;5.05;;;9.40;99.90;;;;;;5053540;28;20097;-54
2023/01/11 01:43:22;;;;;;;6.40;4.25;;;9.60;99.90;;;;;;5051754;28;20051;-55
2023/01/11 01:45:51;;;;;;;5.72;4.18;;;9.60;99.90;;;;;;5052524;28;20052;-55
2023/01/11 01:48:21;;;;;;;6.50;4.25;;;9.70;99.90;;;;;;5050946;28;20094;-55
2023/01/11 01:50:54;;;;;;;7.10;4.65;;;9.60;99.90;;;;;;5052004;28;20063;-55
2023/01/11 01:53:28;;;;;;;5.88;4.70;;;9.50;99.90;;;;;;5052435;28;20044;-55
2023/01/11 01:55:58;;;;;;;6.70;4.78;;;9.60;99.90;;;;;;5052278;28;20370;-55
2023/01/11 01:58:29;;;;;;;5.80;3.92;;;9.60;99.90;;;;;;5051591;28;20049;-55
2023/01/11 02:00:55;;;;;;;7.82;4.78;;;9.70;99.90;;;;;;5052751;28;20409;-55
2023/01/11 02:03:24;;;;;;;7.18;4.63;;;9.70;99.90;;;;;;5051373;28;20036;-55
2023/01/11 02:05:52;;;;;;;5.57;3.95;;;9.80;99.90;;;;;;5051344;28;20043;-56
2023/01/11 02:08:28;;;;;;;5.30;3.92;;;9.80;99.90;;;;;;5051505;28;20164;-55
2023/01/11 02:10:54;;;;;;;6.05;3.40;;;9.60;99.90;;;;;;5052282;28;20036;-55
2023/01/11 02:13:20;;;;;;;5.45;3.80;;;9.80;99.90;;;;;;5050306;28;20068;-54
2023/01/11 02:16:06;;;;;;;4.93;3.88;;;9.70;99.90;;;;;;5052703;28;20110;-55
2023/01/11 02:18:33;;;;;;;4.70;3.42;;;9.70;99.90;;;;;;5052290;28;20040;-53
2023/01/11 02:21:05;;;;;;;4.05;3.00;;;10.00;99.90;;;;;;5052800;28;20052;-56
2023/01/11 02:23:55;;;;;;;5.53;3.90;;;9.80;99.90;;;;;;5052663;28;20043;-55
2023/01/11 02:26:27;;;;;;;5.75;3.50;;;10.10;99.90;;;;;;5052317;28;20665;-56
2023/01/11 02:29:12;;;;;;;5.22;3.28;;;10.00;99.90;;;;;;5052809;28;20560;-54
2023/01/11 02:31:57;;;;;;;4.80;3.00;;;10.00;99.90;;;;;;5052720;28;20109;-54
2023/01/11 02:34:46;;;;;;;4.70;2.75;;;10.10;99.90;;;;;;5053135;28;20048;-56
2023/01/11 02:37:40;;;;;;;3.88;2.67;;;9.50;99.90;;;;;;5052433;28;20056;-56
2023/01/11 02:40:26;;;;;;;4.50;2.75;;;10.00;99.90;;;;;;5052779;28;20086;-56
2023/01/11 02:46:12;;;;;;;5.88;3.63;;;10.00;99.90;;;;;;5053002;28;20044;-55
2023/01/11 02:49:12;;;;;;;8.52;3.70;;;9.80;99.90;;;;;;5053710;28;20044;-56
2023/01/11 02:52:07;;;;;;;5.45;3.38;;;10.10;99.90;;;;;;5053010;28;20094;-56
2023/01/11 02:54:35;;;;;;;5.72;3.50;;;10.10;99.90;;;;;;5053177;28;20095;-56
2023/01/11 02:57:03;;;;;;;4.90;3.42;;;10.30;99.90;;;;;;5052235;28;20062;-55
2023/01/11 02:59:31;;;;;;;6.75;3.53;;;9.90;99.90;;;;;;5050424;28;20465;-55
2023/01/11 03:01:58;;;;;;;5.40;3.58;;;9.80;99.90;;;;;;5049554;28;20052;-55
2023/01/11 03:04:33;;;;;;;5.15;3.50;;;9.90;99.90;;;;;;5052513;28;20102;-54
2023/01/11 03:07:13;;;;;;;5.32;3.30;;;9.80;99.90;;;;;;5051582;28;20070;-55
2023/01/11 03:10:03;;;;;;;5.63;3.50;;;9.90;99.90;;;;;;5051937;28;20041;-54
2023/01/11 03:12:53;;;;;;;6.63;3.20;;;9.90;99.90;;;;;;5051330;28;20044;-55
2023/01/11 03:15:31;;;;;;;5.10;3.00;;;9.90;99.90;;;;;;5051530;28;20059;-55
2023/01/11 03:18:25;;;;;;;4.65;3.20;;;10.00;99.90;;;;;;5051079;28;20144;-56
2023/01/11 03:21:03;;;;;;;6.53;3.22;;;10.30;99.90;;;;;;5051356;28;20037;-55
2023/01/11 03:24:08;;;;;;;5.90;3.63;;;9.90;99.90;;;;;;5051195;28;20044;-55
2023/01/11 03:27:04;;;;;;;6.63;3.70;;;9.70;99.90;;;;;;5051391;28;20272;-55
2023/01/11 03:29:40;;;;;;;9.70;4.72;;;10.10;99.90;;;;;;5052070;28;20056;-53
2023/01/11 03:32:15;;;;;;;7.85;4.28;;;9.90;99.90;;;;;;5050807;28;20078;-56
2023/01/11 03:35:29;;;;;;;10.13;4.68;;;10.10;99.90;;;;;;5051223;28;20569;-56
2023/01/11 03:38:04;;;;;;;13.27;4.80;;;10.10;99.90;;;;;;4993490;28;20072;-54
2023/01/11 03:40:41;;;;;;;11.15;4.85;;;10.20;99.90;;;;;;4993094;28;20046;-56
2023/01/11 03:43:10;;;;;;;14.55;4.95;;;10.20;99.90;;;;;;5027947;28;20279;-55
2023/01/11 03:46:03;;;;;;;12.88;4.88;;;10.20;99.90;;;;;;5051162;28;20458;-55
2023/01/11 03:48:39;;;;;;;17.70;5.20;;;10.20;99.90;;;;;;5050489;28;20696;-55
2023/01/11 03:51:08;;;;;;;12.63;5.47;;;10.30;99.90;;;;;;5051475;28;20091;-55
2023/01/11 03:53:37;;;;;;;16.67;4.90;;;10.20;99.90;;;;;;5051238;28;20045;-55
2023/01/11 03:56:08;;;;;;;17.67;5.40;;;10.30;99.90;;;;;;5051268;28;20542;-55
2023/01/11 03:58:35;;;;;;;17.48;5.45;;;10.00;99.90;;;;;;5052669;28;20037;-55
2023/01/11 04:01:01;;;;;;;20.42;5.68;;;10.20;99.90;;;;;;5052416;28;20453;-55
2023/01/11 04:03:27;;;;;;;17.80;5.72;;;10.10;99.90;;;;;;5052280;28;20044;-55
2023/01/11 04:05:58;;;;;;;14.15;5.35;;;10.10;99.90;;;;;;5052687;28;20130;-55
2023/01/11 04:08:24;;;;;;;18.02;5.45;;;10.20;99.90;;;;;;5052618;28;20143;-55
2023/01/11 04:10:49;;;;;;;24.23;7.28;;;10.10;99.90;;;;;;5053500;28;20127;-55
2023/01/11 04:13:15;;;;;;;19.45;5.65;;;10.10;99.90;;;;;;5055710;28;20036;-56
2023/01/11 04:15:41;;;;;;;23.48;5.53;;;10.10;99.90;;;;;;5055257;28;20056;-56
2023/01/11 04:18:06;;;;;;;22.98;4.80;;;10.00;99.90;;;;;;5056024;28;20053;-56
2023/01/11 04:20:39;;;;;;;16.98;5.22;;;10.10;99.90;;;;;;5052848;28;20044;-56
2023/01/11 04:23:05;;;;;;;;;;;10.20;99.90;;;;;;5054268;28;20729;-56
2023/01/11 04:25:31;;;;;;;27.10;6.80;;;9.90;99.90;;;;;;5055067;28;19924;-56
2023/01/11 04:27:57;;;;;;;18.88;4.75;;;10.20;99.90;;;;;;5053198;28;20060;-56
2023/01/11 04:30:22;;;;;;;23.15;5.07;;;10.10;99.90;;;;;;5054948;28;20048;-55
2023/01/11 04:32:48;;;;;;;20.98;5.25;;;10.40;99.90;;;;;;5053474;28;20067;-55
2023/01/11 04:35:14;;;;;;;24.02;6.00;;;9.90;99.90;;;;;;5053454;28;20120;-54
2023/01/11 04:37:40;;;;;;;31.35;6.90;;;10.00;99.90;;;;;;5054212;28;20056;-55
2023/01/11 04:40:06;;;;;;;32.17;5.82;;;9.90;99.90;;;;;;5054731;28;20059;-55
2023/01/11 04:42:32;;;;;;;25.98;4.40;;;9.90;99.90;;;;;;5051401;28;20033;-55
2023/01/11 04:44:58;;;;;;;20.58;2.95;;;9.90;99.90;;;;;;5053712;28;20067;-55
2023/01/11 04:47:24;;;;;;;17.83;3.72;;;9.80;99.90;;;;;;5053488;28;20049;-55
2023/01/11 04:49:50;;;;;;;28.08;4.53;;;9.90;99.90;;;;;;5054548;28;20032;-56
2023/01/11 04:52:18;;;;;;;25.33;5.35;;;9.80;99.90;;;;;;5053224;28;21148;-56
2023/01/11 04:54:44;;;;;;;22.77;4.28;;;9.70;99.90;;;;;;5053898;28;20041;-56
2023/01/11 04:57:13;;;;;;;19.98;3.40;;;9.60;99.90;;;;;;5054263;28;20271;-55
2023/01/11 04:59:39;;;;;;;20.13;3.10;;;9.90;99.90;;;;;;5053642;28;20032;-56
2023/01/11 05:02:04;;;;;;;22.42;3.58;;;9.70;99.90;;;;;;5052954;28;20059;-55
2023/01/11 05:04:30;;;;;;;20.30;3.55;;;9.70;99.90;;;;;;5054365;28;20054;-56
2023/01/11 05:06:56;;;;;;;21.63;3.30;;;9.60;99.90;;;;;;5053901;28;20056;-56
2023/01/11 05:09:21;;;;;;;21.42;3.00;;;9.60;99.90;;;;;;5053878;28;20920;-56
2023/01/11 05:11:47;;;;;;;16.70;2.95;;;9.70;99.90;;;;;;5054724;28;20715;-55
2023/01/11 05:14:14;;;;;;;15.90;3.13;;;9.60;99.90;;;;;;5056197;28;20505;-55
2023/01/11 05:16:40;;;;;;;19.02;3.72;;;9.50;99.90;;;;;;5056212;28;20509;-56
2023/01/11 05:19:08;;;;;;;26.27;5.00;;;9.30;99.90;;;;;;5054839;28;20045;-56
2023/01/11 05:21:36;;;;;;;18.95;3.30;;;9.50;99.90;;;;;;5054240;28;20071;-56
2023/01/11 05:24:04;;;;;;;30.55;4.15;;;9.30;99.90;;;;;;5054727;28;20033;-56
2023/01/11 05:26:33;;;;;;;28.20;3.30;;;9.50;99.90;;;;;;5054818;28;20041;-56
2023/01/11 05:29:00;;;;;;;27.63;3.85;;;9.30;99.90;;;;;;5054445;28;20064;-56
2023/01/11 05:31:26;;;;;;;25.98;3.58;;;9.40;99.90;;;;;;5055440;28;20164;-56
2023/01/11 05:33:54;;;;;;;27.55;4.28;;;9.40;99.90;;;;;;5053863;28;20557;-56
2023/01/11 05:36:21;;;;;;;33.65;4.32;;;9.50;99.90;;;;;;5053679;28;20131;-56
2023/01/11 05:38:48;;;;;;;29.77;3.88;;;9.40;99.90;;;;;;5053333;28;20629;-56
2023/01/11 05:41:15;;;;;;;32.65;4.05;;;9.50;99.90;;;;;;5052675;28;20044;-56
2023/01/11 05:46:29;;;;;;;30.33;4.00;;;9.60;99.90;;;;;;5053693;28;20143;-56
2023/01/11 05:48:55;;;;;;;24.23;3.05;;;9.30;99.90;;;;;;5051946;28;20114;-56
2023/01/11 05:51:21;;;;;;;28.30;4.03;;;9.50;99.90;;;;;;5051654;28;20044;-56
2023/01/11 05:53:47;;;;;;;24.83;3.50;;;9.40;99.90;;;;;;5051807;28;20197;-56
2023/01/11 05:56:13;;;;;;;22.48;3.65;;;9.40;99.90;;;;;;5053993;28;20048;-56
2023/01/11 05:58:39;;;;;;;17.02;3.05;;;9.70;99.90;;;;;;5051718;28;20044;-56
2023/01/11 06:01:05;;;;;;;21.77;3.03;;;9.00;99.90;;;;;;5052086;28;20048;-56
2023/01/11 06:03:30;;;;;;;19.70;2.95;;;9.10;99.90;;;;;;5052787;28;20111;-56
2023/01/11 06:05:58;;;;;;;20.55;2.65;;;9.00;99.90;;;;;;5052410;28;20084;-56
2023/01/11 06:08:24;;;;;;;36.08;3.90;;;9.00;99.90;;;;;;5051334;28;20097;-56
2023/01/11 06:10:54;;;;;;;27.08;3.75;;;8.80;99.90;;;;;;5052008;28;20083;-57
2023/01/11 06:13:26;;;;;;;27.05;4.50;;;8.90;99.90;;;;;;5051532;28;20074;-56
2023/01/11 06:15:59;;;;;;;34.33;4.50;;;8.90;99.90;;;;;;5034967;28;20067;-57
2023/01/11 06:18:27;;;;;;;29.50;3.72;;;9.10;99.90;;;;;;5051122;28;20070;-56
2023/01/11 06:20:54;;;;;;;23.23;3.90;;;9.80;99.90;;;;;;5051377;28;20656;-56
2023/01/11 06:23:20;;;;;;;35.92;5.43;;;9.30;99.90;;;;;;5050817;28;20036;-56
2023/01/11 06:25:46;;;;;;;32.90;4.10;;;8.70;99.90;;;;;;5053940;28;20044;-56
2023/01/11 06:28:12;;;;;;;30.83;5.07;;;8.90;99.90;;;;;;5053504;28;20137;-56
2023/01/11 06:30:38;;;;;;;26.42;3.85;;;8.90;99.90;;;;;;5051735;28;20040;-56
2023/01/11 06:33:05;;;;;;;33.60;3.92;;;8.90;99.90;;;;;;5052629;28;20056;-56
2023/01/11 06:35:41;;;;;;;31.63;4.20;;;9.20;99.90;;;;;;5052619;28;20243;-56
2023/01/11 06:38:10;;;;;;;30.17;4.75;;;8.90;99.90;;;;;;5052813;28;20056;-55
2023/01/11 06:40:37;;;;;;;31.13;4.00;;;8.90;99.90;;;;;;5051701;28;20547;-55
2023/01/11 06:43:03;;;;;;;28.52;4.82;;;8.90;99.90;;;;;;5053206;28;20082;-55
2023/01/11 06:45:29;;;;;;;29.50;3.60;;;9.60;99.90;;;;;;5052718;28;20044;-54
2023/01/11 06:47:55;;;;;;;18.35;3.10;;;9.10;99.90;;;;;;5051437;28;20064;-55
2023/01/11 06:50:21;;;;;;;20.73;3.80;;;10.10;99.90;;;;;;5052738;28;20566;-55
2023/01/11 06:52:58;;;;;;;24.73;3.20;;;8.80;99.90;;;;;;5052068;28;20398;-55
2023/01/11 06:55:26;;;;;;;20.73;3.33;;;9.00;99.90;;;;;;5052543;28;20044;-55
2023/01/11 06:57:52;;;;;;;20.17;3.95;;;6.80;99.90;;;;;;5052364;28;20707;-54
2023/01/11 07:00:19;;;;;;;24.02;2.63;;;8.90;99.90;;;;;;5051647;28;20127;-55
2023/01/11 07:02:46;;;;;;;27.65;3.70;;;8.80;99.90;;;;;;5051231;28;20493;-56
2023/01/11 07:05:12;;;;;;;25.73;4.50;;;8.90;99.90;;;;;;5051681;28;20518;-55
2023/01/11 07:07:39;;;;;;;14.65;2.70;;;8.90;99.90;;;;;;5052483;28;20051;-55
2023/01/11 07:10:13;;;;;;;21.17;2.50;;;10.30;99.90;;;;;;5052620;28;20036;-55
2023/01/11 07:12:39;;;;;;;14.57;2.30;;;8.90;99.90;;;;;;5051119;28;20036;-56
2023/01/11 07:15:06;;;;;;;24.10;4.30;;;8.70;99.90;;;;;;5051924;28;20121;-55
2023/01/11 07:17:32;;;;;;;20.10;3.30;;;8.70;99.90;;;;;;5051233;28;20040;-55
2023/01/11 07:19:58;;;;;;;16.88;2.55;;;8.80;99.90;;;;;;5050087;28;20066;-56
2023/01/11 07:22:24;;;;;;;23.08;3.30;;;8.50;99.90;;;;;;5052563;28;20110;-55
2023/01/11 07:24:50;;;;;;;22.23;3.33;;;9.00;99.90;;;;;;5051593;28;20055;-55
2023/01/11 07:27:18;;;;;;;20.88;2.58;;;8.50;99.90;;;;;;5052317;28;20390;-55
2023/01/11 07:29:44;;;;;;;21.70;2.40;;;9.20;99.90;;;;;;5052360;28;20075;-56
2023/01/11 07:32:10;;;;;;;16.35;2.55;;;8.50;99.90;;;;;;5051397;28;20053;-56
2023/01/11 07:34:36;;;;;;;19.05;2.92;;;8.30;99.90;;;;;;5052439;28;20110;-55
2023/01/11 07:37:02;;;;;;;17.67;2.80;;;10.40;99.90;;;;;;5051161;28;20064;-56
2023/01/11 07:39:28;;;;;;;19.20;2.80;;;8.70;99.90;;;;;;5051982;28;20454;-55
2023/01/11 07:44:38;;;;;;;21.55;3.22;;;8.50;99.90;;;;;;5051187;28;21161;-56
2023/01/11 07:47:03;;;;;;;14.80;2.78;;;8.70;99.90;;;;;;5054025;28;20119;-55
2023/01/11 07:49:30;;;;;;;18.17;3.33;;;8.60;99.90;;;;;;5055285;28;20076;-55
2023/01/11 07:51:56;;;;;;;21.63;2.65;;;8.50;99.90;;;;;;5056390;28;20045;-55
2023/01/11 07:54:23;;;;;;;27.52;3.42;;;8.60;99.90;;;;;;5055908;28;20455;-54
2023/01/11 07:56:49;;;;;;;17.90;2.40;;;8.60;99.90;;;;;;5058269;28;20036;-55
2023/01/11 07:59:15;;;;;;;14.70;2.33;;;8.60;99.90;;;;;;5057607;28;20429;-56
2023/01/11 08:01:41;;;;;;;19.58;3.30;;;8.60;99.90;;;;;;5057237;28;20075;-55
2023/01/11 08:04:10;;;;;;;13.82;2.30;;;8.60;99.90;;;;;;5055744;28;20592;-55
2023/01/11 08:06:37;;;;;;;22.45;2.40;;;10.30;99.90;;;;;;5056310;28;20048;-55
2023/01/11 08:09:03;;;;;;;21.52;2.88;;;8.70;99.90;;;;;;5055074;28;20167;-55
2023/01/11 08:16:58;;;;;;;20.05;2.60;;;8.60;99.90;;;;;;5054843;28;20392;-55
2023/01/11 08:19:24;;;;;;;17.85;3.15;;;8.60;99.90;;;;;;5055034;28;20036;-56
2023/01/11 08:21:51;;;;;;;20.58;2.28;;;8.90;99.90;;;;;;5055765;28;20044;-54
2023/01/11 08:24:17;;;;;;;17.50;3.03;;;8.60;99.90;;;;;;5054994;28;20044;-54
2023/01/11 08:26:42;;;;;;;16.90;2.42;;;8.50;99.90;;;;;;5054497;28;20390;-55
2023/01/11 08:29:08;;;;;;;16.30;2.10;;;8.30;99.90;;;;;;5055044;28;20135;-55
2023/01/11 08:31:34;;;;;;;17.38;2.65;;;8.50;99.90;;;;;;5054780;28;20031;-55
2023/01/11 08:34:00;;;;;;;16.95;2.22;;;8.60;99.90;;;;;;5055196;28;20036;-55
2023/01/11 08:36:26;;;;;;;24.02;3.00;;;8.60;99.90;;;;;;5054374;28;20136;-55
2023/01/11 08:38:56;;;;;;;19.95;2.97;;;8.30;99.90;;;;;;5054060;28;20123;-56
2023/01/11 08:41:22;;;;;;;17.48;2.05;;;8.40;99.90;;;;;;5054016;28;20608;-55
2023/01/11 08:43:48;;;;;;;19.42;2.42;;;8.30;99.90;;;;;;5053625;28;20536;-55
2023/01/11 08:46:14;;;;;;;18.45;2.72;;;8.40;99.90;;;;;;5054493;28;20755;-55
2023/01/11 08:48:40;;;;;;;15.27;2.92;;;8.30;99.90;;;;;;5052048;28;20040;-55
2023/01/11 08:51:06;;;;;;;15.90;2.50;;;8.30;99.90;;;;;;5052790;28;20059;-55
2023/01/11 08:53:32;;;;;;;16.80;2.30;;;7.30;99.90;;;;;;5053849;28;20045;-55
2023/01/11 08:55:58;;;;;;;11.07;1.85;;;8.40;99.90;;;;;;5055535;28;20049;-55
2023/01/11 08:58:24;;;;;;;15.10;2.15;;;8.50;99.90;;;;;;5054761;28;20501;-55
2023/01/11 09:00:50;;;;;;;12.48;3.05;;;8.30;99.90;;;;;;5055239;28;20044;-55
2023/01/11 09:03:17;;;;;;;18.55;2.70;;;8.60;99.90;;;;;;5054374;28;20040;-50
2023/01/11 09:05:44;;;;;;;16.38;1.92;;;8.10;99.90;;;;;;5055140;28;20045;-47
2023/01/11 09:08:10;;;;;;;12.75;2.95;;;8.40;99.90;;;;;;5055760;28;20040;-50
2023/01/11 09:10:36;;;;;;;14.10;2.40;;;8.70;99.90;;;;;;5055966;28;20201;-50
2023/01/11 09:13:02;;;;;;;13.25;2.78;;;9.50;99.90;;;;;;5053673;28;20076;-49
2023/01/11 09:15:28;;;;;;;15.07;2.35;;;9.90;99.90;;;;;;5054164;28;20113;-47
2023/01/11 09:17:53;;;;;;;13.10;2.40;;;10.00;99.90;;;;;;5054834;28;20032;-48
2023/01/11 09:20:20;;;;;;;16.08;2.25;;;9.70;99.90;;;;;;5086045;28;20083;-47
2023/01/11 09:22:47;;;;;;;11.95;2.42;;;9.90;99.90;;;;;;5054458;28;20060;-47
2023/01/11 09:25:13;;;;;;;14.27;2.35;;;9.80;99.90;;;;;;5054089;28;20044;-46
2023/01/11 09:27:46;;;;;;;12.63;2.08;;;10.00;99.90;;;;;;5053722;28;20263;-52
2023/01/11 09:30:13;;;;;;;11.20;2.40;;;10.20;99.90;;;;;;5054732;28;20580;-49
2023/01/11 09:32:39;;;;;;;14.98;1.98;;;10.40;99.90;;;;;;5054482;28;20141;-49
2023/01/11 09:35:06;;;;;;;12.52;2.05;;;10.30;99.90;;;;;;5054095;28;20090;-48
2023/01/11 09:37:32;;;;;;;15.60;2.25;;;10.50;99.90;;;;;;5053171;28;20519;-46
2023/01/11 09:39:58;;;;;;;12.93;2.00;;;10.90;99.90;;;;;;5053293;28;20037;-46
2023/01/11 09:42:34;;;;;;;13.75;1.83;;;10.90;99.90;;;;;;5053676;28;20079;-46
2023/01/11 09:45:06;;;;;;;13.15;2.00;;;11.20;99.90;;;;;;5051424;28;20127;-48
2023/01/11 09:47:41;;;;;;;16.67;2.60;;;11.40;99.90;;;;;;5052024;28;20037;-47
2023/01/11 09:50:19;;;;;;;16.35;2.10;;;11.20;99.90;;;;;;5052945;28;20045;-49
2023/01/11 09:52:51;;;;;;;13.30;2.58;;;11.00;99.90;;;;;;5051605;28;20045;-49
2023/01/11 09:55:23;;;;;;;17.25;2.92;;;10.60;99.90;;;;;;5053035;28;20045;-50
2023/01/11 09:57:57;;;;;;;;;;;9.50;99.90;;;;;;5051501;28;20333;-52
2023/01/11 10:00:28;;;;;;;15.15;3.15;;;10.20;99.90;;;;;;5051902;28;19931;-50
2023/01/11 10:03:12;;;;;;;15.18;2.17;;;10.20;99.90;;;;;;5051288;28;20037;-48
2023/01/11 10:06:01;;;;;;;13.10;2.53;;;10.80;99.90;;;;;;5051531;28;20044;-49
2023/01/11 10:08:38;;;;;;;15.38;3.05;;;11.80;99.90;;;;;;5050951;28;20405;-51
2023/01/11 10:11:36;;;;;;;10.05;2.50;;;12.30;99.90;;;;;;5051529;28;20048;-51
2023/01/11 10:14:34;;;;;;;15.13;4.10;;;12.80;99.90;;;;;;5051924;28;20450;-52
2023/01/11 10:17:19;;;;;;;16.92;3.90;;;13.00;99.90;;;;;;5051137;28;20036;-51
2023/01/11 10:19:55;;;;;;;13.52;2.60;;;13.50;99.90;;;;;;5052800;28;20040;-52
2023/01/11 10:22:32;;;;;;;14.18;3.47;;;13.50;99.90;;;;;;5051359;28;20056;-49
2023/01/11 10:25:46;;;;;;;14.57;2.92;;;13.60;99.90;;;;;;5051570;28;20614;-51
2023/01/11 10:28:21;;;;;;;27.00;3.88;;;13.20;99.90;;;;;;5051440;28;20150;-49
2023/01/11 10:31:06;;;;;;;17.08;4.15;;;12.40;99.90;;;;;;5051704;28;20048;-53
2023/01/11 10:33:49;;;;;;;18.75;5.65;;;11.70;99.90;;;;;;5051833;28;20051;-51
2023/01/11 10:36:34;;;;;;;;;;;11.20;99.90;;;;;;5051534;28;20611;-50
2023/01/11 10:42:22;;;;;;;13.55;3.42;;;10.70;99.90;;;;;;5051013;28;20072;-52
2023/01/11 10:45:05;;;;;;;35.33;4.85;;;10.20;99.90;;;;;;5051099;28;20052;-51
2023/01/11 10:47:35;;;;;;;;;;;10.20;99.90;;;;;;5052071;28;20044;-51
2023/01/11 10:50:23;;;;;;;22.75;5.10;;;10.30;99.90;;;;;;5052563;28;20007;-50
2023/01/11 10:53:18;;;;;;;20.70;4.55;;;10.20;99.90;;;;;;5051638;28;20040;-50
2023/01/11 10:56:08;;;;;;;21.10;3.28;;;10.00;99.90;;;;;;5051467;28;20052;-50
2023/01/11 10:58:52;;;;;;;22.67;4.13;;;9.80;99.90;;;;;;5052588;28;20391;-52
2023/01/11 11:01:31;;;;;;;20.55;5.03;;;9.90;99.90;;;;;;5053093;28;20092;-51
2023/01/11 11:04:34;;;;;;;27.30;6.25;;;10.00;99.90;;;;;;5050584;28;20462;-53
2023/01/11 11:07:14;;;;;;;24.95;4.72;;;9.80;99.90;;;;;;5052655;28;20048;-52
2023/01/11 11:10:01;;;;;;;20.15;4.20;;;9.90;99.90;;;;;;5053568;28;20056;-50
2023/01/11 11:12:33;;;;;;;22.70;3.60;;;9.60;99.90;;;;;;5082986;28;20064;-52
2023/01/11 11:14:59;;;;;;;;;;;9.90;99.90;;;;;;5051623;28;20551;-50
2023/01/11 11:17:29;;;;;;;28.17;4.32;;;9.50;99.90;;;;;;5050864;28;19928;-49
2023/01/11 11:19:56;;;;;;;19.23;3.03;;;9.60;99.90;;;;;;5052015;28;20044;-49
2023/01/11 11:22:22;;;;;;;14.88;3.05;;;9.60;99.90;;;;;;5055906;28;20136;-49
2023/01/11 11:24:58;;;;;;;22.63;4.32;;;9.50;99.90;;;;;;5056018;28;20774;-50
2023/01/11 11:27:31;;;;;;;19.75;3.22;;;9.50;99.90;;;;;;5055352;28;20048;-48
2023/01/11 11:29:57;;;;;;;21.73;3.95;;;9.40;99.90;;;;;;5054240;28;20404;-47
2023/01/11 11:32:25;;;;;;;15.23;3.45;;;9.30;99.90;;;;;;5055013;28;20599;-48
2023/01/11 11:34:51;;;;;;;17.90;3.83;;;9.30;99.90;;;;;;5056136;28;20041;-47
2023/01/11 11:37:30;;;;;;;36.63;5.97;;;9.30;99.90;;;;;;5055644;28;20706;-49
2023/01/11 11:39:56;;;;;;;15.73;3.47;;;9.40;99.90;;;;;;5054618;28;20044;-50
2023/01/11 11:42:23;;;;;;;21.65;4.78;;;9.50;99.90;;;;;;5055684;28;20052;-51
2023/01/11 11:45:07;;;;;;;20.65;4.78;;;9.40;99.90;;;;;;5054922;28;20513;-50
2023/01/11 11:47:33;;;;;;;20.73;3.35;;;9.40;99.90;;;;;;5054436;28;20044;-50
2023/01/11 11:50:23;;;;;;;18.75;3.42;;;9.40;99.90;;;;;;5054751;28;20044;-51
2023/01/11 11:52:53;;;;;;;23.98;5.60;;;9.60;99.90;;;;;;5053759;28;20127;-50
2023/01/11 11:55:25;;;;;;;32.47;5.80;;;9.50;99.90;;;;;;5054347;28;20120;-52
2023/01/11 11:57:52;;;;;;;20.67;3.78;;;9.60;99.90;;;;;;5055451;28;20409;-51
2023/01/11 12:00:25;;;;;;;17.65;4.45;;;9.90;99.90;;;;;;5053358;28;20645;-49
2023/01/11 12:02:59;;;;;;;17.75;3.65;;;9.60;99.90;;;;;;5054483;28;20040;-51
2023/01/11 12:05:25;;;;;;;17.23;4.20;;;9.80;99.90;;;;;;5054288;28;20153;-49
2023/01/11 12:07:52;;;;;;;23.83;4.15;;;9.90;99.90;;;;;;5056204;28;20041;-48
2023/01/11 12:10:21;;;;;;;25.33;4.88;;;9.60;99.90;;;;;;5056869;28;20056;-49
2023/01/11 12:12:55;;;;;;;24.92;4.85;;;9.90;99.90;;;;;;5055657;28;20044;-50
2023/01/11 12:15:26;;;;;;;24.63;4.47;;;9.70;99.90;;;;;;5055955;28;20386;-48
2023/01/11 12:17:53;;;;;;;25.00;4.45;;;9.70;99.90;;;;;;5055846;28;20036;-51
2023/01/11 12:20:21;;;;;;;16.70;4.07;;;9.60;99.90;;;;;;5055332;28;20451;-48
2023/01/11 12:23:20;;;;;;;25.70;4.10;;;9.60;99.90;;;;;;5054727;28;20048;-51
2023/01/11 12:26:10;;;;;;;14.80;3.42;;;11.60;99.90;;;;;;5054609;28;20392;-49
2023/01/11 12:29:12;;;;;;;26.77;3.97;;;9.60;99.90;;;;;;5054554;28;20041;-52
2023/01/11 12:31:40;;;;;;;15.57;3.20;;;9.40;99.90;;;;;;5053605;28;20045;-50
2023/01/11 12:34:15;;;;;;;23.85;4.18;;;9.50;99.90;;;;;;5050350;28;20110;-50
2023/01/11 12:36:59;;;;;;;18.90;3.70;;;9.50;99.90;;;;;;5053385;28;20124;-51
2023/01/11 12:39:40;;;;;;;23.75;4.20;;;9.50;99.90;;;;;;5053253;28;20032;-48
2023/01/11 12:42:09;;;;;;;23.52;4.95;;;9.50;99.90;;;;;;5053714;28;20052;-48
2023/01/11 12:45:16;;;;;;;16.98;3.90;;;9.50;99.90;;;;;;5053949;28;20075;-48
2023/01/11 12:47:59;;;;;;;18.58;4.03;;;9.40;99.90;;;;;;5049657;28;20066;-48
2023/01/11 12:50:49;;;;;;;28.55;3.85;;;9.50;99.90;;;;;;5050902;28;20145;-47
2023/01/11 12:53:40;;;;;;;25.80;5.10;;;9.50;99.90;;;;;;5052015;28;20346;-49
2023/01/11 12:56:47;;;;;;;24.88;4.88;;;9.40;99.90;;;;;;5053162;28;20529;-51
2023/01/11 12:59:38;;;;;;;20.92;5.07;;;9.50;99.90;;;;;;5048549;28;20063;-50
2023/01/11 13:02:09;;;;;;;28.13;5.93;;;9.50;99.90;;;;;;5053358;28;20071;-50
2023/01/11 13:04:49;;;;;;;28.40;3.92;;;9.50;99.90;;;;;;5053078;28;20135;-51
2023/01/11 13:07:21;;;;;;;20.20;4.57;;;9.40;99.90;;;;;;5052743;28;20063;-48
2023/01/11 13:09:53;;;;;;;22.88;4.03;;;9.50;99.90;;;;;;5052266;28;20115;-50
2023/01/11 13:12:33;;;;;;;34.78;7.45;;;9.50;99.90;;;;;;5051877;28;20444;-51
2023/01/11 13:15:22;;;;;;;43.40;6.72;;;9.40;99.90;;;;;;5053473;28;20041;-51
2023/01/11 13:18:27;;;;;;;50.50;8.25;;;9.40;99.90;;;;;;5052047;28;20060;-50
2023/01/11 13:21:01;;;;;;;28.73;5.80;;;9.40;99.90;;;;;;5054948;28;20079;-51
2023/01/11 13:23:38;;;;;;;27.20;4.53;;;9.60;99.90;;;;;;5053879;28;20059;-50
2023/01/11 13:26:18;;;;;;;29.55;4.72;;;9.50;99.90;;;;;;5053770;28;20492;-49
2023/01/11 13:28:48;;;;;;;35.63;7.38;;;9.60;99.90;;;;;;5012221;28;1191688;-52
2023/01/11 13:31:15;;;;;;;24.73;5.68;;;9.60;99.90;;;;;;5054588;28;20047;-51
2023/01/11 13:33:48;;;;;;;27.52;8.20;;;9.50;99.90;;;;;;5053878;28;20243;-49
2023/01/11 13:36:22;;;;;;;32.50;5.72;;;9.40;99.90;;;;;;5053918;28;20130;-50
2023/01/11 13:39:12;;;;;;;27.50;7.15;;;9.40;99.90;;;;;;5053586;28;20048;-50
2023/01/11 13:41:52;;;;;;;29.67;6.78;;;9.60;99.90;;;;;;5054068;28;20040;-50